松山からテンションMAXXXXXXXXXX

LUXURY FLIGHT

03-6423-7371

羽田本店:東京都大田区羽田5-11-1
営業時間:10:00~20:00
定休日:毎週 月曜日
セントレア店:愛知県常滑市セントレア1-1
営業時間:10:00~20:00 年中無休

lv

松山からテンションMAXXXXXXXXXX

STAFF BLOG

2019/05/16 松山からテンションMAXXXXXXXXXX

こんにちは!!

 

今日 9時現在のRJGG METARは。。。。

 

RJGG 160000Z 31006KT 9999 FEW020 20/16 Q1015 NOSIG

RW36ですね!!

 

とうとう20°が平均になってまいりました!!

 

夏も間近ですね

 

 

さて、今回はGW明けのお客様♪

 

愛媛は松山からのお二人!

 

お仕事の関係でこちらにいらっしゃったとのことでした!

ばってんようこそですたい(九州弁カモ)

特にお兄さんのテンションが高いこと高いこと。

 

芸人ですか!?みたいなノリでした。

 

なかなかハイセンスなお方でございました

img_0366

フライトというより、話が盛り上がってしまった時間になりました!!!

 

それと・・・・

 

ブログが遅くなりごめんなさい!

 

また是非遊びにきてください!

 

お待ちしております!!!

 

 

この度はご遠方からのご来店、ほっんとうにありがとうございました!!

 

 

「感謝」

TOP